Thursday, November 27, 2014, 3:34 PM EST

KDYL, Doylestown Airport

Location: Doylestown, PA, United States Lat: 40.333
Local Time: 3:34 PM EST (20:34 GMT) Lon: -75.117
Time Zone: US/Eastern Elev: 393 ft

Show me the last for .
Show Decoded

2014-11-27 14:54 METAR KDYL 271954Z AUTO 30006KT 10SM FEW024 OVC060 02/M02 A3000 RMK AO2 SLP166
                 T00171022 $ =
2014-11-27 14:22 METAR KDYL 271922Z AUTO 31006KT 10SM SCT024 OVC060 02/M02 A3000 RMK AO2
                 T00171022 $ =
2014-11-27 13:54 METAR KDYL 271854Z AUTO 32007KT 10SM OVC022 01/M02 A2999 RMK AO2 SLP163
                 T00111022 $ =
2014-11-27 12:54 METAR KDYL 271754Z AUTO 32008KT 10SM OVC019 01/M02 A2999 RMK AO2 SLP162 60003
                 T00111017 10017 20000 58006 =
2014-11-27 12:15 METAR KDYL 271715Z AUTO 29008KT 10SM OVC015 01/M02 A3000 RMK AO2 T00111017 =
2014-11-27 11:54 METAR KDYL 271654Z AUTO 33006KT 10SM BKN012 OVC022 01/M01 A3000 RMK AO2 SLP164
                 T00111011 =
2014-11-27 10:54 METAR KDYL 271554Z AUTO 29005KT 10SM OVC011 01/M01 A3001 RMK AO2 SLP171
                 T00061011 =
2014-11-27 10:13 METAR KDYL 271513Z AUTO 31007KT 10SM BKN010 OVC024 01/M01 A3001 RMK AO2
                 T00061006 =
2014-11-27 09:54 METAR KDYL 271454Z AUTO 29005KT 10SM SCT010 OVC026 01/M01 A3001 RMK AO2 SLP169
                 P0002 60003 T00061006 53012 =
2014-11-27 09:47 METAR KDYL 271447Z AUTO 31005KT 10SM BKN009 OVC026 01/M01 A3001 RMK AO2 CIG
                 008V012 P0002 T00061006 =
2014-11-27 08:54 METAR KDYL 271354Z AUTO 31003KT 10SM FEW008 OVC027 00/M01 A3000 RMK AO2 SNE30
                 SLP165 P0000 T00001006 =
2014-11-27 08:14 METAR KDYL 271314Z AUTO 00000KT 8SM -SN FEW008 OVC028 00/M01 A2999 RMK AO2 P0000
                 T00001006 =
2014-11-27 08:04 METAR KDYL 271304Z AUTO 31005KT 5SM -SN BR OVC029 00/M01 A2999 RMK AO2 P0000
                 T00001006 =
2014-11-27 07:54 METAR KDYL 271254Z AUTO 31005KT 5SM -SN BR BKN030 OVC035 00/M01 A2998 RMK AO2
                 SNB43 SLP160 P0001 T00001006 =
2014-11-27 06:54 METAR KDYL 271154Z AUTO 28004KT 10SM OVC050 00/M01 A2997 RMK AO2 SNE03 SLP157
                 P0000 60000 70042 T00001006 10006 20000 53011 =
2014-11-27 05:54 METAR KDYL 271054Z AUTO VRB03KT 9SM -SN OVC055 00/M01 A2995 RMK AO2 SLP149 P0000
                 T00001006 =
2014-11-27 04:54 METAR KDYL 270954Z AUTO 29007KT 9SM -SN OVC048 00/M01 A2995 RMK AO2 SNB47 SLP148
                 P0000 T00001011 =
2014-11-27 03:54 METAR KDYL 270854Z AUTO 28006KT 10SM OVC049 01/M01 A2994 RMK AO2 SLP146
                 T00061011 51016 =
2014-11-27 02:54 METAR KDYL 270754Z AUTO 29007KT 10SM SCT050 OVC070 01/M01 A2992 RMK AO2 SLP139
                 T00061011 =
2014-11-27 01:54 METAR KDYL 270654Z AUTO 27004KT 10SM OVC050 01/M01 A2992 RMK AO2 SLP138
                 T00061006 =
2014-11-27 00:54 METAR KDYL 270554Z AUTO VRB05KT 10SM SCT070 OVC080 01/M01 A2989 RMK AO2 SLP130
                 60007 T00061006 10006 20000 51017 =
2014-11-26 23:54 METAR KDYL 270454Z AUTO 29004KT 10SM FEW055 OVC075 01/M01 A2988 RMK AO2 SLP126
                 T00061006 400670000 =
2014-11-26 22:54 METAR KDYL 270354Z AUTO 33005KT 10SM OVC070 01/M01 A2987 RMK AO2 SLP122
                 T00061006 =
2014-11-26 21:54 METAR KDYL 270254Z AUTO 34009G14KT 10SM FEW014 OVC080 01/00 A2984 RMK AO2 SLP113
                 P0001 60007 T00060000 56006 =
2014-11-26 20:54 METAR KDYL 270154Z AUTO 34008KT 300V360 10SM FEW010 OVC045 01/01 A2985 RMK AO2
                 SNE46 SLP113 P0003 T00060006 =
2014-11-26 20:50 METAR KDYL 270150Z AUTO 34006G16KT 9SM SCT010 OVC041 01/00 A2985 RMK AO2 SNE46
                 P0003 =
2014-11-26 20:43 METAR KDYL 270143Z AUTO 34009G16KT 9SM -SN BKN010 OVC037 01/01 A2985 RMK AO2
                 P0002 T00060006 =
2014-11-26 19:54 METAR KDYL 270054Z AUTO 33009G15KT 6SM -SN BR BKN007 BKN011 OVC020 00/00 A2986
                 RMK AO2 SLP118 P0003 T00000000 =
2014-11-26 18:54 METAR KDYL 262354Z AUTO 33007KT 3SM -SN BR BKN007 OVC013 00/00 A2986 RMK AO2
                 UPB02E26SNE02B26 SLP118 P0002 60006 T00000000 10000 20000 51012 =
2014-11-26 17:54 METAR KDYL 262254Z AUTO 34009KT 5SM -SN BR BKN008 OVC016 00/00 A2985 RMK AO2
                 UPB09E20SNE09B20 SLP115 P0001 T00000000 =
2014-11-26 17:50 METAR KDYL 262250Z AUTO 34008G14KT 5SM -SN BR BKN007 OVC015 00/00 A2985 RMK AO2
                 UPB09E20SNE09B20 P0001 =
2014-11-26 17:27 METAR KDYL 262227Z AUTO 35008G17KT 5SM -SN BR SCT007 OVC012 00/00 A2983 RMK AO2
                 UPB09E20SNE09B20 P0000 T00000000 =
2014-11-26 17:16 METAR KDYL 262216Z AUTO 35008KT 8SM UP BKN009 OVC014 00/00 A2982 RMK AO2
                 UPB09SNE09 CIG 006V013 P0000 T00000000 =
2014-11-26 16:54 METAR KDYL 262154Z AUTO 36011G16KT 9SM -SN BKN010 BKN014 OVC019 00/00 A2982 RMK
                 AO2 CIG 007V012 SLP104 P0001 T00000000 =
2014-11-26 16:38 METAR KDYL 262138Z AUTO 36008G17KT 4SM -SN BR BKN010 OVC019 00/00 A2981 RMK AO2
                 P0001 T00000000 =
2014-11-26 16:30 METAR KDYL 262130Z AUTO 36011KT 5SM -SN BR SCT008 OVC018 00/00 A2981 RMK AO2
                 P0000 T00000000 =
2014-11-26 15:54 METAR KDYL 262054Z AUTO 36010KT 4SM -SN BR BKN006 OVC016 00/00 A2982 RMK AO2
                 SLP104 P0001 60002 T00000000 56046 =

Support USWX by starting your Amazon purchase here.